createdAt,value
2018-02-13T00:02:29.905Z,14.30
2018-02-13T00:04:57.678Z,14.20
2018-02-13T00:07:25.381Z,14.20
2018-02-13T00:09:53.165Z,14.10
2018-02-13T00:12:20.934Z,14.10
2018-02-13T00:14:48.665Z,14.00
2018-02-13T00:17:16.513Z,14.00
2018-02-13T00:19:44.290Z,14.00
2018-02-13T00:22:12.880Z,14.00
2018-02-13T00:24:40.679Z,14.00
2018-02-13T00:27:08.397Z,14.00
2018-02-13T00:29:36.161Z,13.90
2018-02-13T00:32:03.888Z,13.90
2018-02-13T00:34:31.650Z,13.80
2018-02-13T00:36:59.363Z,13.80
2018-02-13T00:39:27.087Z,13.90
2018-02-13T00:41:54.853Z,13.80
2018-02-13T00:44:22.632Z,13.80
2018-02-13T00:46:51.191Z,13.70
2018-02-13T00:49:18.981Z,13.70
2018-02-13T00:51:47.597Z,13.70
2018-02-13T00:54:15.381Z,13.70
2018-02-13T00:56:43.102Z,13.70
2018-02-13T00:59:10.933Z,13.70
2018-02-13T01:01:38.670Z,13.70
2018-02-13T01:04:07.173Z,13.70
2018-02-13T01:06:34.988Z,13.70
2018-02-13T01:09:03.548Z,13.50
2018-02-13T01:11:31.325Z,13.40
2018-02-13T01:13:59.059Z,13.40
2018-02-13T01:16:27.047Z,13.30
2018-02-13T01:18:54.860Z,13.20
2018-02-13T01:21:22.642Z,13.30
2018-02-13T01:23:50.374Z,13.30
2018-02-13T01:26:18.087Z,13.30
2018-02-13T01:28:45.827Z,13.30
2018-02-13T01:31:13.605Z,13.30
2018-02-13T01:33:41.309Z,13.30
2018-02-13T01:36:09.114Z,13.30
2018-02-13T01:38:37.607Z,13.30
2018-02-13T01:41:05.370Z,13.30
2018-02-13T01:43:33.096Z,13.30
2018-02-13T01:46:00.816Z,13.20
2018-02-13T01:48:28.573Z,13.30
2018-02-13T01:50:56.306Z,13.20
2018-02-13T01:53:24.123Z,13.20
2018-02-13T01:55:51.922Z,13.10
2018-02-13T01:58:19.666Z,13.10
2018-02-13T02:00:47.448Z,13.00
2018-02-13T02:03:15.168Z,13.00
2018-02-13T02:05:42.901Z,13.00
2018-02-13T02:08:10.626Z,13.00
2018-02-13T02:10:38.338Z,13.10
2018-02-13T02:13:06.119Z,13.00
2018-02-13T02:15:34.652Z,12.90
2018-02-13T02:18:02.375Z,12.90
2018-02-13T02:20:31.000Z,12.80
2018-02-13T02:22:58.713Z,12.80
2018-02-13T02:25:26.475Z,12.80
2018-02-13T02:27:54.243Z,12.80
2018-02-13T02:30:21.961Z,12.80
2018-02-13T02:32:49.723Z,12.80
2018-02-13T02:35:17.588Z,12.70
2018-02-13T02:37:45.299Z,12.60
2018-02-13T02:40:13.029Z,12.70
2018-02-13T02:42:52.489Z,12.80
2018-02-13T02:45:20.495Z,12.70
2018-02-13T02:47:48.272Z,12.70
2018-02-13T02:50:16.056Z,12.70
2018-02-13T02:52:43.767Z,12.70
2018-02-13T02:55:11.491Z,12.70
2018-02-13T02:57:39.207Z,12.60
2018-02-13T03:00:06.956Z,12.60
2018-02-13T03:02:34.667Z,12.60
2018-02-13T03:05:03.234Z,12.40
2018-02-13T03:07:30.976Z,12.40
2018-02-13T03:09:58.751Z,12.50
2018-02-13T03:12:27.303Z,12.40
2018-02-13T03:14:55.032Z,12.50
2018-02-13T03:17:23.528Z,12.40
2018-02-13T03:19:51.238Z,12.40
2018-02-13T03:22:19.033Z,12.30
2018-02-13T03:24:46.859Z,12.20
2018-02-13T03:27:14.638Z,12.20
2018-02-13T03:29:42.417Z,12.10
2018-02-13T03:32:10.234Z,12.20
2018-02-13T03:34:37.965Z,12.20
2018-02-13T03:37:05.743Z,12.10
2018-02-13T03:39:33.508Z,12.10
2018-02-13T03:42:01.284Z,12.10
2018-02-13T03:44:29.051Z,12.10
2018-02-13T03:46:56.772Z,12.20
2018-02-13T03:49:24.555Z,12.00
2018-02-13T03:51:52.267Z,12.10
2018-02-13T03:54:20.027Z,12.10
2018-02-13T03:56:48.577Z,12.20
2018-02-13T03:59:16.369Z,12.10
2018-02-13T04:01:44.101Z,12.10
2018-02-13T04:04:11.867Z,12.00
2018-02-13T04:06:39.648Z,12.00
2018-02-13T04:09:07.991Z,11.90
2018-02-13T04:11:35.727Z,11.80
2018-02-13T04:14:03.598Z,11.80
2018-02-13T04:16:31.392Z,11.80
2018-02-13T04:18:59.270Z,11.90
2018-02-13T04:21:27.034Z,12.00
2018-02-13T04:23:54.767Z,11.80
2018-02-13T04:26:22.539Z,11.70
2018-02-13T04:28:50.275Z,11.70
2018-02-13T04:31:18.778Z,11.70
2018-02-13T04:33:46.506Z,11.60
2018-02-13T04:36:14.274Z,11.80
2018-02-13T04:38:41.991Z,11.80
2018-02-13T04:41:09.723Z,11.80
2018-02-13T04:43:38.206Z,11.80
2018-02-13T04:46:05.970Z,11.70
2018-02-13T04:48:33.687Z,11.70
2018-02-13T04:51:01.420Z,11.80
2018-02-13T04:53:29.897Z,11.80
2018-02-13T04:55:57.757Z,11.70
2018-02-13T04:58:25.558Z,11.80
2018-02-13T05:00:53.332Z,11.70
2018-02-13T05:03:21.105Z,11.80
2018-02-13T05:05:48.875Z,11.80
2018-02-13T05:08:16.633Z,11.80
2018-02-13T05:10:44.356Z,11.80
2018-02-13T05:13:12.873Z,11.90
2018-02-13T05:15:40.691Z,11.80
2018-02-13T05:18:08.464Z,11.90
2018-02-13T05:20:36.193Z,11.90
2018-02-13T05:23:03.978Z,11.90
2018-02-13T05:25:31.751Z,11.90
2018-02-13T05:27:59.524Z,12.00
2018-02-13T05:30:27.268Z,12.10
2018-02-13T05:32:54.993Z,12.20
2018-02-13T05:35:22.857Z,12.20
2018-02-13T05:38:01.657Z,12.30
2018-02-13T05:40:32.480Z,12.30
2018-02-13T05:43:00.656Z,12.40
2018-02-13T05:45:28.516Z,12.40
2018-02-13T05:47:56.327Z,12.50
2018-02-13T05:50:24.314Z,12.50
2018-02-13T05:52:52.196Z,12.60
2018-02-13T05:55:23.389Z,12.70
2018-02-13T05:57:58.997Z,12.70
2018-02-13T06:00:26.805Z,12.70
2018-02-13T06:02:54.635Z,12.80
2018-02-13T06:05:22.361Z,12.80
2018-02-13T06:07:50.897Z,12.90
2018-02-13T06:10:18.690Z,12.80
2018-02-13T06:12:46.478Z,13.00
2018-02-13T06:15:14.272Z,13.00
2018-02-13T06:17:41.978Z,12.90
2018-02-13T06:20:09.746Z,13.00
2018-02-13T06:22:37.532Z,13.00
2018-02-13T06:25:05.544Z,13.10
2018-02-13T06:27:33.377Z,13.10
2018-02-13T06:30:01.148Z,13.10
2018-02-13T06:32:28.997Z,13.20
2018-02-13T06:34:56.712Z,13.20
2018-02-13T06:37:24.485Z,13.10
2018-02-13T06:39:52.194Z,13.20
2018-02-13T06:42:19.976Z,13.00
2018-02-13T06:44:47.697Z,13.30
2018-02-13T06:47:15.493Z,13.30
2018-02-13T06:49:43.276Z,13.30
2018-02-13T06:52:11.069Z,13.30
2018-02-13T06:54:38.868Z,13.30
2018-02-13T06:57:06.630Z,13.20
2018-02-13T06:59:34.427Z,13.10
2018-02-13T07:02:02.215Z,13.10
2018-02-13T07:04:30.026Z,13.10
2018-02-13T07:06:57.767Z,13.10
2018-02-13T07:09:26.316Z,12.90
2018-02-13T07:11:54.093Z,12.90
2018-02-13T07:14:21.819Z,12.80
2018-02-13T07:16:49.616Z,12.70
2018-02-13T07:19:17.355Z,12.70
2018-02-13T07:21:45.070Z,12.60
2018-02-13T07:24:12.866Z,12.80
2018-02-13T07:26:40.600Z,12.90
2018-02-13T07:29:08.335Z,12.70
2018-02-13T07:31:36.111Z,12.80
2018-02-13T07:34:03.927Z,12.70
2018-02-13T07:36:31.645Z,12.90
2018-02-13T07:38:59.418Z,12.90
2018-02-13T07:41:27.139Z,12.70
2018-02-13T07:43:54.920Z,12.80
2018-02-13T07:46:22.697Z,12.90
2018-02-13T07:48:50.473Z,12.90
2018-02-13T07:51:18.196Z,12.90
2018-02-13T07:53:45.910Z,12.80
2018-02-13T07:56:13.689Z,13.10
2018-02-13T07:58:41.406Z,12.80
2018-02-13T08:01:09.137Z,12.90
2018-02-13T08:03:36.849Z,13.00
2018-02-13T08:06:04.643Z,13.00
2018-02-13T08:08:32.424Z,12.90
2018-02-13T08:11:00.189Z,13.00
2018-02-13T08:13:27.920Z,13.10
2018-02-13T08:15:55.703Z,13.10
2018-02-13T08:18:23.485Z,13.00
2018-02-13T08:20:51.263Z,13.20
2018-02-13T08:23:19.043Z,13.30
2018-02-13T08:25:46.767Z,13.20
2018-02-13T08:28:15.255Z,13.00
2018-02-13T08:30:42.988Z,13.00
2018-02-13T08:33:10.716Z,12.90
2018-02-13T08:35:38.494Z,13.00
2018-02-13T08:38:06.216Z,13.10
2018-02-13T08:40:33.940Z,13.20
2018-02-13T08:43:01.658Z,13.00
2018-02-13T08:45:29.546Z,13.00
2018-02-13T08:47:57.480Z,13.10
2018-02-13T08:50:25.209Z,13.10
2018-02-13T08:52:53.010Z,13.20
2018-02-13T08:55:20.806Z,13.10
2018-02-13T08:57:48.535Z,13.10
2018-02-13T09:00:16.251Z,13.30
2018-02-13T09:02:44.732Z,13.20
2018-02-13T09:05:12.512Z,13.20
2018-02-13T09:07:41.059Z,13.30
2018-02-13T09:10:08.843Z,13.30
2018-02-13T09:12:37.326Z,13.40
2018-02-13T09:15:05.121Z,13.40
2018-02-13T09:17:32.841Z,13.50
2018-02-13T09:20:00.720Z,13.20
2018-02-13T09:22:28.451Z,13.30
2018-02-13T09:24:56.192Z,13.40
2018-02-13T09:27:23.971Z,13.60
2018-02-13T09:29:51.742Z,13.60
2018-02-13T09:32:19.533Z,13.60
2018-02-13T09:34:47.262Z,13.40
2018-02-13T09:37:14.997Z,13.50
2018-02-13T09:39:42.777Z,13.70
2018-02-13T09:42:10.509Z,13.50
2018-02-13T09:44:38.287Z,13.70
2018-02-13T09:47:06.018Z,13.80
2018-02-13T09:49:33.790Z,13.80
2018-02-13T09:52:01.571Z,13.80
2018-02-13T09:54:29.515Z,13.70
2018-02-13T09:56:57.272Z,13.60
2018-02-13T09:59:24.986Z,13.60
2018-02-13T10:01:52.710Z,13.70
2018-02-13T10:04:20.551Z,13.60
2018-02-13T10:06:48.365Z,13.80
2018-02-13T10:09:16.106Z,13.50
2018-02-13T10:11:43.829Z,13.50
2018-02-13T10:14:11.557Z,13.70
2018-02-13T10:16:39.818Z,13.80
2018-02-13T10:19:07.594Z,13.80
2018-02-13T10:21:35.329Z,13.70
2018-02-13T10:24:03.080Z,13.40
2018-02-13T10:26:31.617Z,13.60
2018-02-13T10:28:59.408Z,13.60
2018-02-13T10:31:27.138Z,13.80
2018-02-13T10:33:54.906Z,13.80
2018-02-13T10:36:22.683Z,13.90
2018-02-13T10:38:50.433Z,13.90
2018-02-13T10:41:18.156Z,14.10
2018-02-13T10:43:45.886Z,14.10
2018-02-13T10:46:13.632Z,14.10
2018-02-13T10:48:41.422Z,14.10
2018-02-13T10:51:09.219Z,13.90
2018-02-13T10:53:36.996Z,14.10
2018-02-13T10:56:04.788Z,14.10
2018-02-13T10:58:32.617Z,14.10
2018-02-13T11:01:06.068Z,14.00
2018-02-13T11:03:33.848Z,14.00
2018-02-13T11:06:01.626Z,14.00
2018-02-13T11:08:29.374Z,13.90
2018-02-13T11:10:57.166Z,14.00
2018-02-13T11:13:25.004Z,14.00
2018-02-13T11:15:52.801Z,13.90
2018-02-13T11:18:20.570Z,13.90
2018-02-13T11:20:48.338Z,14.10
2018-02-13T11:23:16.133Z,14.20
2018-02-13T11:25:43.919Z,14.20
2018-02-13T11:28:11.633Z,14.30
2018-02-13T11:30:39.406Z,14.20
2018-02-13T11:33:07.194Z,14.30
2018-02-13T11:35:34.966Z,14.30
2018-02-13T11:38:02.710Z,14.30
2018-02-13T11:40:30.483Z,14.30
2018-02-13T11:42:58.267Z,14.40
2018-02-13T11:45:26.078Z,14.50
2018-02-13T11:47:53.800Z,14.60
2018-02-13T11:50:21.584Z,14.60
2018-02-13T11:52:49.294Z,14.70
2018-02-13T11:55:17.084Z,14.80
2018-02-13T11:57:44.841Z,14.80
2018-02-13T12:00:12.603Z,14.80
2018-02-13T12:02:40.418Z,13.00
2018-02-13T12:05:08.195Z,14.10
2018-02-13T12:07:36.102Z,14.50
2018-02-13T12:10:03.921Z,14.70
2018-02-13T12:12:31.743Z,14.80
2018-02-13T12:14:59.480Z,14.80
2018-02-13T12:17:27.197Z,14.90
2018-02-13T12:19:54.964Z,14.90
2018-02-13T12:22:23.078Z,15.00
2018-02-13T12:24:50.861Z,15.00
2018-02-13T12:27:18.691Z,15.10
2018-02-13T12:29:46.466Z,15.20
2018-02-13T12:32:14.170Z,15.10
2018-02-13T12:34:42.291Z,15.00
2018-02-13T12:37:10.076Z,15.10
2018-02-13T12:39:45.329Z,15.10
2018-02-13T12:42:18.241Z,15.10
2018-02-13T12:44:45.956Z,15.20
2018-02-13T12:47:13.838Z,15.20
2018-02-13T12:49:41.554Z,15.30
2018-02-13T12:52:09.341Z,15.30
2018-02-13T12:54:38.912Z,15.20
2018-02-13T12:57:06.681Z,15.20
2018-02-13T12:59:34.414Z,15.30
2018-02-13T13:02:02.213Z,15.40
2018-02-13T13:04:30.012Z,15.30
2018-02-13T13:06:57.811Z,15.30
2018-02-13T13:09:25.670Z,15.40
2018-02-13T13:11:53.567Z,15.20
2018-02-13T13:14:21.974Z,15.30
2018-02-13T13:16:51.241Z,15.10
2018-02-13T13:19:19.848Z,15.20
2018-02-13T13:21:47.817Z,15.20
2018-02-13T13:24:16.602Z,15.20
2018-02-13T13:26:46.035Z,15.20
2018-02-13T13:29:13.916Z,15.30
2018-02-13T13:31:41.741Z,15.10
2018-02-13T13:34:09.647Z,15.30
2018-02-13T13:36:37.372Z,15.40
2018-02-13T13:39:06.285Z,15.50
2018-02-13T13:41:34.059Z,15.50
2018-02-13T13:44:01.837Z,15.50
2018-02-13T13:46:29.689Z,15.40
2018-02-13T13:49:05.498Z,15.60
2018-02-13T13:51:33.370Z,15.40
2018-02-13T13:54:01.510Z,15.30
2018-02-13T13:56:29.332Z,15.30
2018-02-13T13:58:57.098Z,15.20
2018-02-13T14:01:24.943Z,15.30
2018-02-13T14:03:52.725Z,15.00
2018-02-13T14:06:20.483Z,15.00
2018-02-13T14:08:48.277Z,15.20
2018-02-13T14:11:16.047Z,15.10
2018-02-13T14:13:43.889Z,14.90
2018-02-13T14:16:12.379Z,14.80
2018-02-13T14:18:41.247Z,14.80
2018-02-13T14:21:09.148Z,15.00
2018-02-13T14:23:36.923Z,14.60
2018-02-13T14:26:05.981Z,14.70
2018-02-13T14:28:33.804Z,15.10
2018-02-13T14:31:03.260Z,15.00
2018-02-13T14:33:31.767Z,15.20
2018-02-13T14:35:59.549Z,15.20
2018-02-13T14:38:27.358Z,15.30
2018-02-13T14:40:55.152Z,15.40
2018-02-13T14:43:23.697Z,15.60
2018-02-13T14:45:51.569Z,15.60
2018-02-13T14:48:19.328Z,15.50
2018-02-13T14:50:47.110Z,15.60
2018-02-13T14:53:14.915Z,15.60
2018-02-13T14:55:43.468Z,15.70
2018-02-13T14:58:11.265Z,15.70
2018-02-13T15:00:39.019Z,15.80
2018-02-13T15:03:06.823Z,16.10
2018-02-13T15:05:34.601Z,16.40
2018-02-13T15:08:02.342Z,16.60
2018-02-13T15:10:30.079Z,16.70
2018-02-13T15:12:57.891Z,16.80
2018-02-13T15:15:30.263Z,16.90
2018-02-13T15:18:09.962Z,16.60
2018-02-13T15:20:37.767Z,16.50
2018-02-13T15:23:05.501Z,16.60
2018-02-13T15:25:33.233Z,16.50
2018-02-13T15:28:01.013Z,16.30
2018-02-13T15:30:29.297Z,16.40
2018-02-13T15:32:57.051Z,16.30
2018-02-13T15:35:25.231Z,16.30
2018-02-13T15:37:52.956Z,16.10
2018-02-13T15:40:21.451Z,16.10
2018-02-13T15:42:49.664Z,16.10
2018-02-13T15:45:23.267Z,16.10
2018-02-13T15:47:51.874Z,15.90
2018-02-13T15:50:20.118Z,15.90
2018-02-13T15:52:51.443Z,15.90
2018-02-13T15:55:19.222Z,15.90
2018-02-13T15:57:46.986Z,16.00
2018-02-13T16:00:14.762Z,16.10
2018-02-13T16:02:43.365Z,15.90
2018-02-13T16:05:11.121Z,16.20
2018-02-13T16:07:40.720Z,16.20
2018-02-13T16:10:08.455Z,16.10
2018-02-13T16:12:36.249Z,16.10
2018-02-13T16:15:04.465Z,15.70
2018-02-13T16:17:32.212Z,16.00
2018-02-13T16:20:00.090Z,16.20
2018-02-13T16:22:27.899Z,16.10
2018-02-13T16:24:55.876Z,15.90
2018-02-13T16:27:23.695Z,16.00
2018-02-13T16:29:51.448Z,15.80
2018-02-13T16:32:19.275Z,15.90
2018-02-13T16:34:47.018Z,15.70
2018-02-13T16:37:15.448Z,16.00
2018-02-13T16:39:43.165Z,16.00
2018-02-13T16:42:10.925Z,14.20
2018-02-13T16:44:39.518Z,14.00
2018-02-13T16:47:08.659Z,15.30
2018-02-13T16:49:42.793Z,15.60
2018-02-13T16:52:10.574Z,15.80
2018-02-13T16:54:54.200Z,15.40
2018-02-13T16:57:22.051Z,14.60
2018-02-13T16:59:49.776Z,15.50
2018-02-13T17:02:17.580Z,15.40
2018-02-13T17:04:45.374Z,15.40
2018-02-13T17:07:13.191Z,15.30
2018-02-13T17:09:40.919Z,15.30
2018-02-13T17:12:08.719Z,15.30
2018-02-13T17:14:37.356Z,15.30
2018-02-13T17:17:05.147Z,15.50
2018-02-13T17:19:32.930Z,15.20
2018-02-13T17:22:01.428Z,13.80
2018-02-13T17:24:29.211Z,13.70
2018-02-13T17:26:57.008Z,14.70
2018-02-13T17:29:25.542Z,15.10
2018-02-13T17:31:54.206Z,15.20
2018-02-13T17:34:45.163Z,15.30
2018-02-13T17:37:17.159Z,15.10
2018-02-13T17:39:44.986Z,15.10
2018-02-13T17:42:12.819Z,15.20
2018-02-13T17:44:40.648Z,15.30
2018-02-13T17:47:08.484Z,15.10
2018-02-13T17:49:38.907Z,15.10
2018-02-13T17:52:06.656Z,15.10
2018-02-13T17:54:34.427Z,15.10
2018-02-13T17:57:02.183Z,15.40
2018-02-13T17:59:29.954Z,15.30
2018-02-13T18:01:57.726Z,13.90
2018-02-13T18:04:25.567Z,14.70
2018-02-13T18:06:53.319Z,15.30
2018-02-13T18:09:21.849Z,15.50
2018-02-13T18:12:16.326Z,15.10
2018-02-13T18:14:44.080Z,15.00
2018-02-13T18:17:11.991Z,15.10
2018-02-13T18:19:39.969Z,15.30
2018-02-13T18:22:08.047Z,15.00
2018-02-13T18:24:35.785Z,15.00
2018-02-13T18:27:03.582Z,15.00
2018-02-13T18:29:32.273Z,15.00
2018-02-13T18:32:00.048Z,15.00
2018-02-13T18:34:27.771Z,15.00
2018-02-13T18:36:55.650Z,15.20
2018-02-13T18:39:24.148Z,14.90
2018-02-13T18:41:56.926Z,15.20
2018-02-13T18:44:30.175Z,14.90
2018-02-13T18:50:09.894Z,15.30
2018-02-13T18:55:43.996Z,15.00
2018-02-13T18:58:16.311Z,14.90
2018-02-13T19:00:46.656Z,15.00
2018-02-13T19:03:22.922Z,15.00
2018-02-13T19:05:50.697Z,14.80
2018-02-13T19:08:18.471Z,14.80
2018-02-13T19:10:46.343Z,14.80
2018-02-13T19:16:00.194Z,14.80
2018-02-13T19:18:46.086Z,14.90
2018-02-13T19:40:05.280Z,14.90
2018-02-13T19:59:49.723Z,14.80
2018-02-13T20:02:17.489Z,14.50
2018-02-13T20:04:45.968Z,14.30
2018-02-13T20:07:13.788Z,14.20
2018-02-13T20:09:46.382Z,14.30
2018-02-13T20:12:19.709Z,14.30
2018-02-13T20:14:47.438Z,14.20
2018-02-13T20:17:15.252Z,14.30
2018-02-13T20:19:43.000Z,14.40
2018-02-13T20:22:11.270Z,14.40
2018-02-13T20:24:39.005Z,14.40
2018-02-13T20:27:07.767Z,14.40
2018-02-13T20:29:35.563Z,14.50
2018-02-13T20:32:05.133Z,14.40
2018-02-13T20:34:38.911Z,14.50
2018-02-13T20:37:19.006Z,14.50
2018-02-13T20:39:47.946Z,14.50
2018-02-13T20:42:16.475Z,14.60
2018-02-13T20:44:44.247Z,14.50
2018-02-13T20:47:12.067Z,14.50
2018-02-13T20:49:39.794Z,14.50
2018-02-13T20:52:07.617Z,14.40
2018-02-13T20:54:36.338Z,14.50
2018-02-13T20:57:04.629Z,14.50
2018-02-13T20:59:33.195Z,14.50
2018-02-13T21:02:02.235Z,14.40
2018-02-13T21:04:30.310Z,14.50
2018-02-13T21:09:36.796Z,14.40
2018-02-13T21:12:08.884Z,14.40
2018-02-13T21:14:36.923Z,14.40
2018-02-13T21:17:04.718Z,14.40
2018-02-13T21:19:33.211Z,14.40
2018-02-13T21:22:01.104Z,14.40
2018-02-13T21:24:28.884Z,14.40
2018-02-13T21:26:56.679Z,14.40
2018-02-13T21:29:24.453Z,14.40
2018-02-13T21:31:52.953Z,14.20
2018-02-13T21:34:20.700Z,14.20
2018-02-13T21:36:48.485Z,14.20
2018-02-13T21:39:17.047Z,14.20
2018-02-13T21:41:44.848Z,14.20
2018-02-13T21:44:12.566Z,14.20
2018-02-13T21:46:40.376Z,14.20
2018-02-13T21:49:08.150Z,14.10
2018-02-13T21:51:35.892Z,14.10
2018-02-13T21:54:03.677Z,14.10
2018-02-13T21:56:31.474Z,14.20
2018-02-13T21:58:59.206Z,14.20
2018-02-13T22:01:26.998Z,14.10
2018-02-13T22:03:54.920Z,14.10
2018-02-13T22:06:23.506Z,14.10
2018-02-13T22:08:51.377Z,14.10
2018-02-13T22:11:19.919Z,14.00
2018-02-13T22:13:47.725Z,13.90
2018-02-13T22:16:15.477Z,13.90
2018-02-13T22:18:43.249Z,14.00
2018-02-13T22:21:11.026Z,14.00
2018-02-13T22:23:38.776Z,14.00
2018-02-13T22:26:06.524Z,13.90
2018-02-13T22:28:34.261Z,13.90
2018-02-13T22:31:02.047Z,13.90
2018-02-13T22:33:29.771Z,13.80
2018-02-13T22:35:57.504Z,13.90
2018-02-13T22:38:25.232Z,13.90
2018-02-13T22:40:53.001Z,13.80
2018-02-13T22:43:20.766Z,13.90
2018-02-13T22:45:48.483Z,13.90
2018-02-13T22:48:27.717Z,13.70
2018-02-13T22:50:57.559Z,13.70
2018-02-13T22:53:25.735Z,13.60
2018-02-13T22:55:53.511Z,13.70
2018-02-13T22:58:21.228Z,13.70
2018-02-13T23:00:48.899Z,13.60
2018-02-13T23:03:17.012Z,13.50
2018-02-13T23:05:44.705Z,13.50
2018-02-13T23:08:12.418Z,13.50
2018-02-13T23:10:40.913Z,13.30
2018-02-13T23:13:08.683Z,13.30
2018-02-13T23:15:37.977Z,13.30
2018-02-13T23:18:05.650Z,13.20
2018-02-13T23:20:33.325Z,13.30
2018-02-13T23:23:02.721Z,13.30
2018-02-13T23:25:31.303Z,13.30
2018-02-13T23:27:59.782Z,13.10
2018-02-13T23:30:28.203Z,13.10
2018-02-13T23:32:55.987Z,13.00
2018-02-13T23:35:23.647Z,13.00
2018-02-13T23:37:51.754Z,12.90
2018-02-13T23:40:19.564Z,12.90
2018-02-13T23:42:47.231Z,12.90
2018-02-13T23:45:14.895Z,12.90
2018-02-13T23:47:42.564Z,12.90
2018-02-13T23:50:10.248Z,12.80
2018-02-13T23:52:37.914Z,12.80
2018-02-13T23:55:05.630Z,12.80
2018-02-13T23:57:34.107Z,12.80
